createdAt,value
2022-10-19T00:01:55.336Z,1.77
2022-10-19T00:07:43.506Z,1.50
2022-10-19T00:13:30.310Z,1.77
2022-10-19T00:19:21.617Z,2.05
2022-10-19T00:25:08.656Z,2.33
2022-10-19T00:30:55.626Z,1.50
2022-10-19T00:36:45.129Z,1.98
2022-10-19T00:42:32.184Z,2.08
2022-10-19T00:48:32.367Z,1.42
2022-10-19T00:54:23.458Z,1.42
2022-10-19T01:00:11.571Z,1.27
2022-10-19T01:05:59.108Z,1.95
2022-10-19T01:11:57.695Z,2.40
2022-10-19T01:18:01.656Z,1.48
2022-10-19T01:24:23.899Z,1.90
2022-10-19T01:30:16.638Z,1.77
2022-10-19T01:36:20.191Z,1.17
2022-10-19T01:42:19.388Z,1.75
2022-10-19T01:48:41.147Z,1.65
2022-10-19T01:54:31.121Z,2.15
2022-10-19T02:00:23.076Z,1.75
2022-10-19T02:06:20.535Z,1.53
2022-10-19T02:12:10.702Z,1.55
2022-10-19T02:17:59.914Z,1.33
2022-10-19T02:23:48.360Z,1.20
2022-10-19T02:29:43.540Z,1.73
2022-10-19T02:35:31.480Z,1.63
2022-10-19T02:41:30.796Z,1.20
2022-10-19T02:47:22.494Z,1.13
2022-10-19T02:53:09.276Z,1.13
2022-10-19T02:58:56.860Z,1.05
2022-10-19T03:10:38.763Z,1.10
2022-10-19T03:16:25.690Z,1.08
2022-10-19T03:22:14.542Z,1.17
2022-10-19T03:28:01.203Z,1.92
2022-10-19T03:33:48.056Z,1.15
2022-10-19T03:39:35.087Z,1.73
2022-10-19T03:45:22.179Z,1.25
2022-10-19T03:51:12.999Z,2.17
2022-10-19T03:56:59.650Z,1.77
2022-10-19T04:02:49.367Z,1.60
2022-10-19T04:08:36.402Z,1.48
2022-10-19T04:14:32.683Z,1.90
2022-10-19T04:20:21.007Z,1.90
2022-10-19T04:26:09.771Z,2.05
2022-10-19T04:31:56.532Z,2.05
2022-10-19T04:37:48.108Z,1.38
2022-10-19T04:43:35.603Z,1.33
2022-10-19T04:49:23.507Z,1.90
2022-10-19T04:55:12.515Z,1.60
2022-10-19T05:00:59.370Z,1.58
2022-10-19T05:06:53.608Z,1.10
2022-10-19T05:12:40.534Z,1.98
2022-10-19T05:18:28.037Z,1.15
2022-10-19T05:24:16.905Z,3.00
2022-10-19T05:30:08.362Z,2.92
2022-10-19T05:35:55.278Z,2.58
2022-10-19T05:41:46.825Z,2.03
2022-10-19T05:47:34.219Z,3.00
2022-10-19T05:53:21.478Z,2.60
2022-10-19T05:59:10.640Z,3.03
2022-10-19T06:05:00.701Z,2.75
2022-10-19T06:10:51.226Z,2.53
2022-10-19T06:16:38.379Z,2.90
2022-10-19T06:22:27.564Z,3.10
2022-10-19T06:28:15.793Z,3.72
2022-10-19T06:41:46.739Z,4.00
2022-10-19T06:47:38.532Z,3.47
2022-10-19T06:53:46.941Z,3.60
2022-10-19T06:59:33.661Z,4.47
2022-10-19T07:05:25.722Z,4.53
2022-10-19T07:11:16.406Z,4.45
2022-10-19T07:17:03.056Z,3.30
2022-10-19T07:22:53.023Z,3.50
2022-10-19T07:28:41.499Z,3.28
2022-10-19T07:34:29.130Z,2.85
2022-10-19T07:40:16.029Z,3.50
2022-10-19T07:46:08.554Z,2.72
2022-10-19T07:51:59.858Z,2.58
2022-10-19T07:57:48.666Z,1.90
2022-10-19T08:09:58.977Z,2.15
2022-10-19T08:15:50.357Z,2.65
2022-10-19T08:21:39.419Z,2.20
2022-10-19T08:27:26.905Z,3.78
2022-10-19T08:33:21.500Z,2.35
2022-10-19T08:39:09.952Z,3.42
2022-10-19T08:45:50.929Z,2.08
2022-10-19T08:51:46.307Z,2.53
2022-10-19T08:58:00.946Z,2.45
2022-10-19T09:04:20.686Z,2.40
2022-10-19T09:10:16.605Z,2.22
2022-10-19T09:16:05.849Z,2.78
2022-10-19T09:22:05.111Z,2.63
2022-10-19T09:28:31.545Z,2.25
2022-10-19T09:34:50.273Z,2.20
2022-10-19T09:46:52.626Z,2.65
2022-10-19T09:52:42.270Z,4.75
2022-10-19T09:58:32.986Z,2.38
2022-10-19T10:04:20.430Z,2.97
2022-10-19T10:10:49.340Z,2.88
2022-10-19T10:16:38.955Z,2.70
2022-10-19T10:22:34.927Z,4.30
2022-10-19T10:28:36.046Z,3.03
2022-10-19T10:34:50.083Z,2.70
2022-10-19T10:40:41.062Z,2.83
2022-10-19T10:46:35.868Z,2.83
2022-10-19T10:52:23.644Z,2.97
2022-10-19T10:58:25.425Z,2.63
2022-10-19T11:04:23.214Z,3.58
2022-10-19T11:10:30.394Z,2.25
2022-10-19T11:16:19.624Z,2.25
2022-10-19T11:22:43.970Z,2.72
2022-10-19T11:29:06.400Z,1.95
2022-10-19T11:35:08.936Z,2.38
2022-10-19T11:41:18.618Z,3.15
2022-10-19T11:47:37.326Z,2.13
2022-10-19T11:53:41.012Z,2.42
2022-10-19T11:59:50.791Z,2.50
2022-10-19T12:06:16.248Z,2.78
2022-10-19T12:12:32.851Z,1.90
2022-10-19T12:18:35.776Z,1.58
2022-10-19T12:24:30.714Z,3.03
2022-10-19T12:30:28.137Z,2.70
2022-10-19T12:37:05.989Z,2.58
2022-10-19T12:43:17.118Z,2.55
2022-10-19T12:49:28.805Z,2.90
2022-10-19T12:55:18.353Z,2.53
2022-10-19T13:01:07.334Z,2.42
2022-10-19T13:06:57.096Z,2.22
2022-10-19T13:12:46.958Z,2.38
2022-10-19T13:19:11.276Z,3.38
2022-10-19T13:25:37.771Z,3.00
2022-10-19T13:31:53.100Z,2.55
2022-10-19T13:37:40.614Z,2.00
2022-10-19T13:43:56.648Z,2.90
2022-10-19T13:50:02.145Z,3.15
2022-10-19T13:55:59.673Z,2.78
2022-10-19T14:01:56.065Z,2.63
2022-10-19T14:07:54.809Z,2.75
2022-10-19T14:13:41.997Z,2.72
2022-10-19T14:19:32.547Z,2.70
2022-10-19T14:25:30.341Z,2.72
2022-10-19T14:31:23.767Z,3.20
2022-10-19T14:37:35.073Z,2.60
2022-10-19T14:43:32.087Z,3.22
2022-10-19T14:49:19.021Z,3.05
2022-10-19T14:55:32.338Z,3.65
2022-10-19T15:07:43.375Z,2.60
2022-10-19T15:13:42.510Z,3.75
2022-10-19T15:19:35.244Z,3.63
2022-10-19T15:25:40.065Z,3.33
2022-10-19T15:31:42.218Z,4.45
2022-10-19T15:37:32.533Z,3.65
2022-10-19T15:49:41.844Z,3.47
2022-10-19T15:55:29.097Z,4.30
2022-10-19T16:01:42.245Z,4.03
2022-10-19T16:07:44.575Z,3.53
2022-10-19T16:13:41.973Z,4.10
2022-10-19T16:20:11.774Z,5.03
2022-10-19T16:26:04.622Z,4.93
2022-10-19T16:33:15.525Z,4.38
2022-10-19T16:39:18.377Z,4.05
2022-10-19T16:51:54.839Z,4.63
2022-10-19T16:57:45.101Z,4.68
2022-10-19T17:03:32.565Z,4.55
2022-10-19T17:09:54.510Z,4.03
2022-10-19T17:22:53.777Z,3.88
2022-10-19T17:28:43.979Z,4.97
2022-10-19T17:34:31.090Z,5.03
2022-10-19T17:40:17.942Z,3.88
2022-10-19T17:46:07.210Z,5.43
2022-10-19T17:51:54.183Z,4.18
2022-10-19T17:57:41.534Z,4.72
2022-10-19T18:03:35.256Z,4.43
2022-10-19T18:09:23.549Z,4.38
2022-10-19T18:15:16.233Z,4.50
2022-10-19T18:21:07.169Z,5.25
2022-10-19T18:27:05.912Z,8.13
2022-10-19T18:33:00.486Z,8.55
2022-10-19T18:38:52.431Z,6.38
2022-10-19T18:44:42.446Z,6.40
2022-10-19T18:50:33.364Z,7.35
2022-10-19T18:56:26.771Z,6.55
2022-10-19T19:02:22.821Z,7.03
2022-10-19T19:09:22.095Z,7.15
2022-10-19T19:15:13.996Z,6.97
2022-10-19T19:21:05.734Z,7.60
2022-10-19T19:26:54.757Z,8.65
2022-10-19T20:31:40.330Z,8.05
2022-10-19T20:37:36.292Z,8.95
2022-10-19T20:43:24.572Z,7.05
2022-10-19T20:49:12.717Z,8.55
2022-10-19T20:54:59.574Z,8.30
2022-10-19T21:00:46.546Z,8.57
2022-10-19T21:06:57.425Z,8.73
2022-10-19T21:12:44.339Z,7.63
2022-10-19T21:18:33.941Z,9.18
2022-10-19T21:24:35.450Z,9.65
2022-10-19T21:30:22.306Z,7.55
2022-10-19T21:36:10.165Z,8.65
2022-10-19T21:41:57.987Z,8.48
2022-10-19T21:47:47.022Z,8.02
2022-10-19T21:53:35.955Z,8.32
2022-10-19T21:59:24.771Z,8.48
2022-10-19T22:05:11.468Z,8.43
2022-10-19T22:10:58.206Z,8.73
2022-10-19T22:16:45.305Z,8.65
2022-10-19T22:22:34.163Z,9.00
2022-10-19T22:28:24.002Z,9.55
2022-10-19T22:34:18.979Z,8.52
2022-10-19T22:40:06.548Z,9.55
2022-10-19T22:45:54.392Z,8.82
2022-10-19T22:51:41.134Z,9.00
2022-10-19T22:57:27.853Z,9.45
2022-10-19T23:03:16.615Z,9.18
2022-10-19T23:09:03.754Z,8.88
2022-10-19T23:14:50.750Z,9.85
2022-10-19T23:20:39.720Z,9.85
2022-10-19T23:26:26.497Z,10.73
2022-10-19T23:32:15.370Z,10.30
2022-10-19T23:38:08.070Z,10.02
2022-10-19T23:43:55.229Z,11.80
2022-10-19T23:49:42.470Z,11.07
2022-10-19T23:55:29.447Z,11.30
